sensor_id;sensor_type;location;lat;lon;timestamp;pressure;altitude;pressure_sealevel;temperature;humidity
9035;BME280;4552;43.422;24.592;2022-10-22T00:00:03;100650.59;;;6.78;92.59
9035;BME280;4552;43.422;24.592;2022-10-22T00:02:30;100655.78;;;6.77;93.41
9035;BME280;4552;43.422;24.592;2022-10-22T00:04:57;100663.69;;;6.84;94.27
9035;BME280;4552;43.422;24.592;2022-10-22T00:07:25;100656.81;;;6.92;94.45
9035;BME280;4552;43.422;24.592;2022-10-22T00:09:51;100642.75;;;6.75;93.75
9035;BME280;4552;43.422;24.592;2022-10-22T00:12:19;100659.19;;;6.73;93.59
9035;BME280;4552;43.422;24.592;2022-10-22T00:14:46;100661.78;;;6.74;94.40
9035;BME280;4552;43.422;24.592;2022-10-22T00:17:15;100657.53;;;6.79;95.04
9035;BME280;4552;43.422;24.592;2022-10-22T00:19:43;100650.56;;;6.75;95.25
9035;BME280;4552;43.422;24.592;2022-10-22T00:22:11;100655.75;;;6.74;95.10
9035;BME280;4552;43.422;24.592;2022-10-22T00:24:38;100655.75;;;6.74;95.49
9035;BME280;4552;43.422;24.592;2022-10-22T00:27:08;100652.19;;;6.69;96.50
9035;BME280;4552;43.422;24.592;2022-10-22T00:29:35;100640.84;;;6.62;95.41
9035;BME280;4552;43.422;24.592;2022-10-22T00:32:03;100655.63;;;6.66;94.59
9035;BME280;4552;43.422;24.592;2022-10-22T00:34:32;100660.72;;;6.59;94.25
9035;BME280;4552;43.422;24.592;2022-10-22T00:36:59;100656.28;;;6.50;94.20
9035;BME280;4552;43.422;24.592;2022-10-22T00:39:27;100651.06;;;6.50;94.76
9035;BME280;4552;43.422;24.592;2022-10-22T00:41:56;100649.41;;;6.54;94.80
9035;BME280;4552;43.422;24.592;2022-10-22T00:47:31;100660.53;;;6.47;96.26
9035;BME280;4552;43.422;24.592;2022-10-22T00:50:02;100655.13;;;6.32;95.72
9035;BME280;4552;43.422;24.592;2022-10-22T00:52:29;100650.78;;;6.31;96.28
9035;BME280;4552;43.422;24.592;2022-10-22T00:54:56;100648.38;;;6.43;96.13
9035;BME280;4552;43.422;24.592;2022-10-22T00:57:24;100644.91;;;6.44;96.24
9035;BME280;4552;43.422;24.592;2022-10-22T00:59:51;100643.19;;;6.44;95.90
9035;BME280;4552;43.422;24.592;2022-10-22T01:02:18;100636.28;;;6.46;95.95
9035;BME280;4552;43.422;24.592;2022-10-22T01:04:45;100612.00;;;6.46;95.58
9035;BME280;4552;43.422;24.592;2022-10-22T01:07:17;100607.72;;;6.49;95.04
9035;BME280;4552;43.422;24.592;2022-10-22T01:09:49;100626.97;;;6.63;95.14
9035;BME280;4552;43.422;24.592;2022-10-22T01:12:24;100607.69;;;6.45;95.67
9035;BME280;4552;43.422;24.592;2022-10-22T01:15:07;100618.16;;;6.52;95.92
9035;BME280;4552;43.422;24.592;2022-10-22T01:17:40;100629.47;;;6.57;96.32
9035;BME280;4552;43.422;24.592;2022-10-22T01:20:20;100591.91;;;6.34;96.43
9035;BME280;4552;43.422;24.592;2022-10-22T01:23:01;100612.00;;;6.46;95.55
9035;BME280;4552;43.422;24.592;2022-10-22T01:25:36;100611.16;;;6.48;95.68
9035;BME280;4552;43.422;24.592;2022-10-22T01:28:13;100599.03;;;6.47;96.25
9035;BME280;4552;43.422;24.592;2022-10-22T01:30:48;100612.63;;;6.28;95.61
9035;BME280;4552;43.422;24.592;2022-10-22T01:33:20;100611.81;;;6.32;96.19
9035;BME280;4552;43.422;24.592;2022-10-22T01:35:49;100604.88;;;6.33;96.29
9035;BME280;4552;43.422;24.592;2022-10-22T01:38:19;100610.22;;;6.42;96.66
9035;BME280;4552;43.422;24.592;2022-10-22T01:40:50;100595.41;;;6.36;96.04
9035;BME280;4552;43.422;24.592;2022-10-22T01:43:19;100596.31;;;6.38;96.03
9035;BME280;4552;43.422;24.592;2022-10-22T01:45:50;100574.50;;;6.27;96.42
9035;BME280;4552;43.422;24.592;2022-10-22T01:48:32;100593.72;;;6.38;96.55
9035;BME280;4552;43.422;24.592;2022-10-22T01:51:19;100585.00;;;6.36;94.90
9035;BME280;4552;43.422;24.592;2022-10-22T01:53:52;100585.03;;;6.38;95.51
9035;BME280;4552;43.422;24.592;2022-10-22T01:56:29;100583.38;;;6.44;94.92
9035;BME280;4552;43.422;24.592;2022-10-22T01:59:05;100582.41;;;6.36;95.69
9035;BME280;4552;43.422;24.592;2022-10-22T02:01:40;100564.94;;;6.25;95.86
9035;BME280;4552;43.422;24.592;2022-10-22T02:04:17;100571.16;;;6.37;95.49
9035;BME280;4552;43.422;24.592;2022-10-22T02:06:47;100562.44;;;6.32;96.10
9035;BME280;4552;43.422;24.592;2022-10-22T02:09:19;100579.81;;;6.36;97.04
9035;BME280;4552;43.422;24.592;2022-10-22T02:11:48;100592.09;;;6.46;97.04
9035;BME280;4552;43.422;24.592;2022-10-22T02:14:16;100560.63;;;6.28;97.30
9035;BME280;4552;43.422;24.592;2022-10-22T02:16:48;100566.88;;;6.41;97.79
9035;BME280;4552;43.422;24.592;2022-10-22T02:19:22;100561.69;;;6.42;98.62
9035;BME280;4552;43.422;24.592;2022-10-22T02:21:50;100574.81;;;6.51;99.11
9035;BME280;4552;43.422;24.592;2022-10-22T02:24:18;100555.56;;;6.39;98.48
9035;BME280;4552;43.422;24.592;2022-10-22T02:26:50;100564.41;;;6.53;97.78
9035;BME280;4552;43.422;24.592;2022-10-22T02:29:21;100576.66;;;6.58;96.73
9035;BME280;4552;43.422;24.592;2022-10-22T02:31:55;100579.13;;;6.49;96.63
9035;BME280;4552;43.422;24.592;2022-10-22T02:34:26;100555.72;;;6.49;96.66
9035;BME280;4552;43.422;24.592;2022-10-22T02:36:56;100574.03;;;6.58;96.63
9035;BME280;4552;43.422;24.592;2022-10-22T02:39:25;100569.75;;;6.63;97.43
9035;BME280;4552;43.422;24.592;2022-10-22T02:41:54;100555.03;;;6.65;97.85
9035;BME280;4552;43.422;24.592;2022-10-22T02:44:22;100557.69;;;6.68;97.85
9035;BME280;4552;43.422;24.592;2022-10-22T02:46:50;100555.81;;;6.55;98.46
9035;BME280;4552;43.422;24.592;2022-10-22T02:49:18;100548.81;;;6.51;99.05
9035;BME280;4552;43.422;24.592;2022-10-22T02:51:45;100542.81;;;6.55;99.63
9035;BME280;4552;43.422;24.592;2022-10-22T02:54:12;100542.00;;;6.62;99.55
9035;BME280;4552;43.422;24.592;2022-10-22T02:56:39;100551.63;;;6.71;99.32
9035;BME280;4552;43.422;24.592;2022-10-22T02:59:06;100541.19;;;6.66;98.26
9035;BME280;4552;43.422;24.592;2022-10-22T03:01:33;100523.75;;;6.58;97.93
9035;BME280;4552;43.422;24.592;2022-10-22T03:04:01;100530.00;;;6.73;98.74
9035;BME280;4552;43.422;24.592;2022-10-22T03:06:30;100531.63;;;6.65;97.74
9035;BME280;4552;43.422;24.592;2022-10-22T03:08:59;100507.34;;;6.63;99.05
9035;BME280;4552;43.422;24.592;2022-10-22T03:11:26;100533.31;;;6.60;98.08
9035;BME280;4552;43.422;24.592;2022-10-22T03:13:53;100542.03;;;6.65;98.61
9035;BME280;4552;43.422;24.592;2022-10-22T03:16:22;100520.50;;;6.77;98.50
9035;BME280;4552;43.422;24.592;2022-10-22T03:18:50;100526.59;;;6.80;98.34
9035;BME280;4552;43.422;24.592;2022-10-22T03:21:23;100537.16;;;6.95;98.28
9035;BME280;4552;43.422;24.592;2022-10-22T03:23:57;100530.41;;;7.13;97.86
9035;BME280;4552;43.422;24.592;2022-10-22T03:26:25;100520.75;;;7.01;96.75
9035;BME280;4552;43.422;24.592;2022-10-22T03:28:52;100517.84;;;6.72;97.17
9035;BME280;4552;43.422;24.592;2022-10-22T03:31:20;100493.34;;;6.49;96.96
9035;BME280;4552;43.422;24.592;2022-10-22T03:33:48;100511.63;;;6.58;96.91
9035;BME280;4552;43.422;24.592;2022-10-22T03:36:14;100516.81;;;6.57;96.15
9035;BME280;4552;43.422;24.592;2022-10-22T03:38:42;100516.91;;;6.66;96.81
9035;BME280;4552;43.422;24.592;2022-10-22T03:41:11;100494.19;;;6.51;96.28
9035;BME280;4552;43.422;24.592;2022-10-22T03:43:38;100514.38;;;6.70;96.38
9035;BME280;4552;43.422;24.592;2022-10-22T03:46:05;100513.63;;;6.83;96.28
9035;BME280;4552;43.422;24.592;2022-10-22T03:48:33;100531.94;;;6.92;95.33
9035;BME280;4552;43.422;24.592;2022-10-22T03:51:00;100522.38;;;6.90;95.45
9035;BME280;4552;43.422;24.592;2022-10-22T03:53:27;100511.97;;;6.91;95.65
9035;BME280;4552;43.422;24.592;2022-10-22T03:55:54;100533.72;;;6.96;95.03
9035;BME280;4552;43.422;24.592;2022-10-22T03:58:23;100519.59;;;6.73;95.50
9035;BME280;4552;43.422;24.592;2022-10-22T04:00:50;100538.72;;;6.75;95.08
9035;BME280;4552;43.422;24.592;2022-10-22T04:03:17;100543.09;;;6.81;95.19
9035;BME280;4552;43.422;24.592;2022-10-22T04:05:44;100541.28;;;6.74;95.47
9035;BME280;4552;43.422;24.592;2022-10-22T04:08:11;100542.22;;;6.80;95.43
9035;BME280;4552;43.422;24.592;2022-10-22T04:10:38;100543.25;;;6.96;95.68
9035;BME280;4552;43.422;24.592;2022-10-22T04:13:05;100533.84;;;7.08;95.67
9035;BME280;4552;43.422;24.592;2022-10-22T04:15:33;100546.03;;;7.16;93.97
9035;BME280;4552;43.422;24.592;2022-10-22T04:18:00;100530.03;;;6.76;95.38
9035;BME280;4552;43.422;24.592;2022-10-22T04:20:27;100546.56;;;6.80;96.73
9035;BME280;4552;43.422;24.592;2022-10-22T04:22:54;100529.06;;;6.68;97.51
9035;BME280;4552;43.422;24.592;2022-10-22T04:25:21;100534.47;;;6.86;96.95
9035;BME280;4552;43.422;24.592;2022-10-22T04:27:49;100541.53;;;6.98;96.26
9035;BME280;4552;43.422;24.592;2022-10-22T04:30:16;100528.34;;;6.80;96.13
9035;BME280;4552;43.422;24.592;2022-10-22T04:32:47;100551.81;;;6.84;96.99
9035;BME280;4552;43.422;24.592;2022-10-22T04:35:15;100556.25;;;6.96;98.50
9035;BME280;4552;43.422;24.592;2022-10-22T04:37:44;100561.59;;;7.09;97.35
9035;BME280;4552;43.422;24.592;2022-10-22T04:40:14;100560.94;;;7.27;96.82
9035;BME280;4552;43.422;24.592;2022-10-22T04:42:47;100566.16;;;7.30;95.94
9035;BME280;4552;43.422;24.592;2022-10-22T04:45:14;100551.25;;;7.16;96.36
9035;BME280;4552;43.422;24.592;2022-10-22T04:47:41;100545.25;;;7.21;96.83
9035;BME280;4552;43.422;24.592;2022-10-22T04:50:10;100531.31;;;7.15;97.13
9035;BME280;4552;43.422;24.592;2022-10-22T04:52:37;100519.13;;;7.11;97.08
9035;BME280;4552;43.422;24.592;2022-10-22T04:55:04;100547.09;;;7.34;96.73
9035;BME280;4552;43.422;24.592;2022-10-22T04:57:32;100525.50;;;7.43;96.36
9035;BME280;4552;43.422;24.592;2022-10-22T04:59:59;100551.66;;;7.58;96.27
9035;BME280;4552;43.422;24.592;2022-10-22T05:02:26;100547.50;;;7.82;94.94
9035;BME280;4552;43.422;24.592;2022-10-22T05:04:54;100539.75;;;7.94;93.28
9035;BME280;4552;43.422;24.592;2022-10-22T05:07:22;100564.97;;;7.97;92.10
9035;BME280;4552;43.422;24.592;2022-10-22T05:09:52;100568.50;;;8.03;92.10
9035;BME280;4552;43.422;24.592;2022-10-22T05:12:21;100576.19;;;7.87;91.38
9035;BME280;4552;43.422;24.592;2022-10-22T05:14:48;100573.50;;;7.75;91.48
9035;BME280;4552;43.422;24.592;2022-10-22T05:17:15;100575.03;;;7.52;92.43
9035;BME280;4552;43.422;24.592;2022-10-22T05:19:42;100556.63;;;7.35;92.64
9035;BME280;4552;43.422;24.592;2022-10-22T05:22:09;100589.13;;;7.73;92.82
9035;BME280;4552;43.422;24.592;2022-10-22T05:24:38;100582.13;;;7.68;91.85
9035;BME280;4552;43.422;24.592;2022-10-22T05:27:05;100576.84;;;7.62;93.03
9035;BME280;4552;43.422;24.592;2022-10-22T05:29:32;100584.81;;;7.80;93.42
9035;BME280;4552;43.422;24.592;2022-10-22T05:31:59;100564.81;;;7.76;93.00
9035;BME280;4552;43.422;24.592;2022-10-22T05:34:26;100569.22;;;7.86;93.43
9035;BME280;4552;43.422;24.592;2022-10-22T05:36:53;100554.34;;;7.68;93.81
9035;BME280;4552;43.422;24.592;2022-10-22T05:39:20;100553.44;;;7.66;93.91
9035;BME280;4552;43.422;24.592;2022-10-22T05:41:49;100560.56;;;7.87;93.39
9035;BME280;4552;43.422;24.592;2022-10-22T05:44:18;100546.63;;;7.85;93.32
9035;BME280;4552;43.422;24.592;2022-10-22T05:46:45;100553.63;;;7.90;93.74
9035;BME280;4552;43.422;24.592;2022-10-22T05:49:14;100561.53;;;8.02;93.17
9035;BME280;4552;43.422;24.592;2022-10-22T05:51:41;100573.78;;;8.14;93.49
9035;BME280;4552;43.422;24.592;2022-10-22T05:54:14;100572.09;;;8.20;92.67
9035;BME280;4552;43.422;24.592;2022-10-22T05:56:41;100574.84;;;8.43;92.22
9035;BME280;4552;43.422;24.592;2022-10-22T05:59:10;100549.63;;;8.42;91.92
9035;BME280;4552;43.422;24.592;2022-10-22T06:01:38;100555.78;;;8.62;91.57
9035;BME280;4552;43.422;24.592;2022-10-22T06:04:09;100561.06;;;8.74;91.32
9035;BME280;4552;43.422;24.592;2022-10-22T06:06:38;100571.59;;;9.01;91.18
9035;BME280;4552;43.422;24.592;2022-10-22T06:09:10;100557.66;;;8.98;91.62
9035;BME280;4552;43.422;24.592;2022-10-22T06:11:41;100555.94;;;9.13;90.91
9035;BME280;4552;43.422;24.592;2022-10-22T06:14:10;100550.75;;;9.37;90.95
9035;BME280;4552;43.422;24.592;2022-10-22T06:16:37;100562.09;;;9.59;90.83
9035;BME280;4552;43.422;24.592;2022-10-22T06:19:04;100556.00;;;9.61;89.53
9035;BME280;4552;43.422;24.592;2022-10-22T06:21:31;100566.47;;;9.85;88.95
9035;BME280;4552;43.422;24.592;2022-10-22T06:23:59;100583.03;;;10.16;87.67
9035;BME280;4552;43.422;24.592;2022-10-22T06:26:27;100572.47;;;10.47;86.73
9035;BME280;4552;43.422;24.592;2022-10-22T06:28:54;100595.16;;;10.39;84.19
9035;BME280;4552;43.422;24.592;2022-10-22T06:31:23;100602.09;;;10.62;83.00
9035;BME280;4552;43.422;24.592;2022-10-22T06:33:51;100578.53;;;10.59;81.76
9035;BME280;4552;43.422;24.592;2022-10-22T06:36:21;100603.84;;;10.55;82.59
9035;BME280;4552;43.422;24.592;2022-10-22T06:38:53;100588.06;;;10.75;82.28
9035;BME280;4552;43.422;24.592;2022-10-22T06:41:22;100598.50;;;10.81;81.46
9035;BME280;4552;43.422;24.592;2022-10-22T06:43:50;100600.25;;;10.89;81.21
9035;BME280;4552;43.422;24.592;2022-10-22T06:46:19;100588.84;;;10.95;80.47
9035;BME280;4552;43.422;24.592;2022-10-22T06:48:50;100575.78;;;10.90;80.45
9035;BME280;4552;43.422;24.592;2022-10-22T06:51:18;100595.72;;;11.20;80.02
9035;BME280;4552;43.422;24.592;2022-10-22T06:53:45;100592.09;;;11.39;79.72
9035;BME280;4552;43.422;24.592;2022-10-22T06:56:15;100585.97;;;11.43;79.05
9035;BME280;4552;43.422;24.592;2022-10-22T06:58:46;100584.31;;;11.25;78.96
9035;BME280;4552;43.422;24.592;2022-10-22T07:01:18;100590.53;;;11.11;79.60
9035;BME280;4552;43.422;24.592;2022-10-22T07:03:50;100581.84;;;11.03;79.59
9035;BME280;4552;43.422;24.592;2022-10-22T07:06:17;100571.41;;;10.94;80.40
9035;BME280;4552;43.422;24.592;2022-10-22T07:08:45;100590.53;;;11.11;80.18
9035;BME280;4552;43.422;24.592;2022-10-22T07:11:14;100586.91;;;11.30;78.23
9035;BME280;4552;43.422;24.592;2022-10-22T07:13:42;100598.97;;;11.58;77.93
9035;BME280;4552;43.422;24.592;2022-10-22T07:16:09;100600.59;;;11.74;77.55
9035;BME280;4552;43.422;24.592;2022-10-22T07:18:37;100597.94;;;11.80;77.07
9035;BME280;4552;43.422;24.592;2022-10-22T07:21:07;100587.22;;;12.07;75.99
9035;BME280;4552;43.422;24.592;2022-10-22T07:23:34;100588.19;;;11.97;75.42
9035;BME280;4552;43.422;24.592;2022-10-22T07:26:02;100587.53;;;11.68;76.29
9035;BME280;4552;43.422;24.592;2022-10-22T07:28:31;100568.38;;;11.64;76.01
9035;BME280;4552;43.422;24.592;2022-10-22T07:30:58;100553.38;;;11.75;75.60
9035;BME280;4552;43.422;24.592;2022-10-22T07:33:26;100550.66;;;11.86;75.28
9035;BME280;4552;43.422;24.592;2022-10-22T07:35:57;100572.22;;;12.21;74.16
9035;BME280;4552;43.422;24.592;2022-10-22T07:38:26;100569.63;;;12.19;73.31
9035;BME280;4552;43.422;24.592;2022-10-22T07:40:54;100572.88;;;12.38;73.76
9035;BME280;4552;43.422;24.592;2022-10-22T07:43:21;100557.78;;;12.60;71.34
9035;BME280;4552;43.422;24.592;2022-10-22T07:45:48;100569.88;;;12.74;71.25
9035;BME280;4552;43.422;24.592;2022-10-22T07:48:16;100560.16;;;12.78;70.95
9035;BME280;4552;43.422;24.592;2022-10-22T07:50:43;100552.34;;;12.73;69.71
9035;BME280;4552;43.422;24.592;2022-10-22T07:53:12;100567.06;;;12.86;70.03
9035;BME280;4552;43.422;24.592;2022-10-22T07:55:41;100555.66;;;12.89;70.35
9035;BME280;4552;43.422;24.592;2022-10-22T07:58:09;100533.63;;;12.99;69.49
9035;BME280;4552;43.422;24.592;2022-10-22T08:00:37;100555.13;;;13.29;68.21
9035;BME280;4552;43.422;24.592;2022-10-22T08:03:04;100560.09;;;13.47;67.62
9035;BME280;4552;43.422;24.592;2022-10-22T08:05:31;100525.03;;;13.47;67.12
9035;BME280;4552;43.422;24.592;2022-10-22T08:07:58;100524.66;;;13.69;67.04
9035;BME280;4552;43.422;24.592;2022-10-22T08:10:25;100509.59;;;13.79;66.37
9035;BME280;4552;43.422;24.592;2022-10-22T08:12:54;100526.41;;;13.70;65.15
9035;BME280;4552;43.422;24.592;2022-10-22T08:15:21;100529.41;;;13.46;65.69
9035;BME280;4552;43.422;24.592;2022-10-22T08:17:50;100524.00;;;13.57;64.98
9035;BME280;4552;43.422;24.592;2022-10-22T08:20:17;100522.81;;;13.74;64.03
9035;BME280;4552;43.422;24.592;2022-10-22T08:22:44;100523.41;;;13.91;62.66
9035;BME280;4552;43.422;24.592;2022-10-22T08:25:14;100510.19;;;13.94;62.57
9035;BME280;4552;43.422;24.592;2022-10-22T08:27:42;100530.41;;;14.40;63.30
9035;BME280;4552;43.422;24.592;2022-10-22T08:30:12;100529.84;;;14.23;63.15
9035;BME280;4552;43.422;24.592;2022-10-22T08:32:40;100529.13;;;14.15;63.83
9035;BME280;4552;43.422;24.592;2022-10-22T08:35:07;100517.28;;;13.89;65.02
9035;BME280;4552;43.422;24.592;2022-10-22T08:37:34;100537.88;;;13.65;65.76
9035;BME280;4552;43.422;24.592;2022-10-22T08:40:01;100534.28;;;13.72;66.24
9035;BME280;4552;43.422;24.592;2022-10-22T08:42:43;100538.66;;;13.71;65.69
9035;BME280;4552;43.422;24.592;2022-10-22T08:45:19;100536.03;;;14.20;63.76
9035;BME280;4552;43.422;24.592;2022-10-22T08:48:06;100525.38;;;14.28;64.32
9035;BME280;4552;43.422;24.592;2022-10-22T08:50:38;100516.34;;;14.41;63.14
9035;BME280;4552;43.422;24.592;2022-10-22T08:53:11;100521.06;;;14.24;63.56
9035;BME280;4552;43.422;24.592;2022-10-22T08:55:40;100514.22;;;14.14;62.95
9035;BME280;4552;43.422;24.592;2022-10-22T08:58:14;100529.84;;;14.68;61.53
9035;BME280;4552;43.422;24.592;2022-10-22T09:00:51;100505.31;;;14.65;61.26
9035;BME280;4552;43.422;24.592;2022-10-22T09:03:38;100511.53;;;14.62;60.87
9035;BME280;4552;43.422;24.592;2022-10-22T09:06:10;100509.84;;;14.98;59.70
9035;BME280;4552;43.422;24.592;2022-10-22T09:08:41;100507.28;;;14.95;59.40
9035;BME280;4552;43.422;24.592;2022-10-22T09:11:16;100498.91;;;15.16;59.16
9035;BME280;4552;43.422;24.592;2022-10-22T09:13:45;100502.88;;;14.95;58.59
9035;BME280;4552;43.422;24.592;2022-10-22T09:16:17;100485.53;;;15.60;57.14
9035;BME280;4552;43.422;24.592;2022-10-22T09:18:53;100468.91;;;15.56;55.77
9035;BME280;4552;43.422;24.592;2022-10-22T09:21:28;100496.16;;;16.23;55.35
9035;BME280;4552;43.422;24.592;2022-10-22T09:24:02;100500.63;;;16.21;54.53
9035;BME280;4552;43.422;24.592;2022-10-22T09:26:33;100480.44;;;16.18;54.67
9035;BME280;4552;43.422;24.592;2022-10-22T09:29:02;100488.28;;;16.21;53.71
9035;BME280;4552;43.422;24.592;2022-10-22T09:31:33;100486.34;;;16.26;54.22
9035;BME280;4552;43.422;24.592;2022-10-22T09:34:00;100488.28;;;16.53;52.92
9035;BME280;4552;43.422;24.592;2022-10-22T09:36:32;100474.72;;;16.33;53.89
9035;BME280;4552;43.422;24.592;2022-10-22T09:38:59;100459.44;;;16.46;53.41
9035;BME280;4552;43.422;24.592;2022-10-22T09:41:32;100486.94;;;16.97;52.51
9035;BME280;4552;43.422;24.592;2022-10-22T09:43:58;100488.94;;;16.89;51.47
9035;BME280;4552;43.422;24.592;2022-10-22T09:46:28;100472.41;;;16.53;52.01
9035;BME280;4552;43.422;24.592;2022-10-22T09:49:05;100506.34;;;16.36;52.40
9035;BME280;4552;43.422;24.592;2022-10-22T09:51:50;100478.16;;;16.35;52.66
9035;BME280;4552;43.422;24.592;2022-10-22T09:54:21;100453.41;;;16.39;52.81
9035;BME280;4552;43.422;24.592;2022-10-22T09:56:54;100481.09;;;16.57;52.55
9035;BME280;4552;43.422;24.592;2022-10-22T09:59:28;100479.75;;;16.42;52.44
9035;BME280;4552;43.422;24.592;2022-10-22T10:01:57;100480.97;;;15.99;53.41
9035;BME280;4552;43.422;24.592;2022-10-22T10:04:26;100460.13;;;15.88;52.98
9035;BME280;4552;43.422;24.592;2022-10-22T10:06:54;100471.44;;;16.25;52.26
9035;BME280;4552;43.422;24.592;2022-10-22T10:09:24;100473.22;;;16.55;51.77
9035;BME280;4552;43.422;24.592;2022-10-22T10:11:58;100472.22;;;16.88;49.84
9035;BME280;4552;43.422;24.592;2022-10-22T10:14:34;100467.56;;;16.69;49.65
9035;BME280;4552;43.422;24.592;2022-10-22T10:17:11;100469.09;;;17.03;49.59
9035;BME280;4552;43.422;24.592;2022-10-22T10:19:55;100471.38;;;17.42;47.88
9035;BME280;4552;43.422;24.592;2022-10-22T10:22:36;100465.28;;;17.40;48.15
9035;BME280;4552;43.422;24.592;2022-10-22T10:25:19;100459.06;;;17.41;48.56
9035;BME280;4552;43.422;24.592;2022-10-22T10:27:55;100456.50;;;16.84;50.09
9035;BME280;4552;43.422;24.592;2022-10-22T10:30:26;100444.13;;;16.84;50.61
9035;BME280;4552;43.422;24.592;2022-10-22T10:33:13;100450.34;;;16.83;50.91
9035;BME280;4552;43.422;24.592;2022-10-22T10:35:52;100425.72;;;16.81;51.09
9035;BME280;4552;43.422;24.592;2022-10-22T10:38:33;100434.38;;;17.14;50.37
9035;BME280;4552;43.422;24.592;2022-10-22T10:41:12;100432.88;;;17.31;50.03
9035;BME280;4552;43.422;24.592;2022-10-22T10:46:34;100424.59;;;17.93;48.76
9035;BME280;4552;43.422;24.592;2022-10-22T10:49:08;100402.19;;;18.03;48.08
9035;BME280;4552;43.422;24.592;2022-10-22T10:51:52;100411.38;;;17.93;47.45
9035;BME280;4552;43.422;24.592;2022-10-22T10:54:30;100405.81;;;18.23;47.67
9035;BME280;4552;43.422;24.592;2022-10-22T10:57:02;100404.81;;;18.50;47.10
9035;BME280;4552;43.422;24.592;2022-10-22T10:59:44;100377.47;;;18.25;46.79
9035;BME280;4552;43.422;24.592;2022-10-22T11:02:42;100389.19;;;18.66;46.52
9035;BME280;4552;43.422;24.592;2022-10-22T11:05:41;100373.69;;;18.98;46.06
9035;BME280;4552;43.422;24.592;2022-10-22T11:08:14;100374.94;;;18.90;45.55
9035;BME280;4552;43.422;24.592;2022-10-22T11:10:48;100374.00;;;18.91;46.01
9035;BME280;4552;43.422;24.592;2022-10-22T11:13:22;100381.22;;;18.87;45.65
9035;BME280;4552;43.422;24.592;2022-10-22T11:15:56;100381.19;;;18.67;45.77
9035;BME280;4552;43.422;24.592;2022-10-22T11:18:29;100374.72;;;18.51;46.63
9035;BME280;4552;43.422;24.592;2022-10-22T11:21:16;100374.25;;;18.85;46.09
9035;BME280;4552;43.422;24.592;2022-10-22T11:23:49;100357.38;;;19.08;45.88
9035;BME280;4552;43.422;24.592;2022-10-22T11:26:28;100350.81;;;18.96;45.13
9035;BME280;4552;43.422;24.592;2022-10-22T11:28:59;100368.97;;;19.68;44.64
9035;BME280;4552;43.422;24.592;2022-10-22T11:31:30;100347.44;;;19.74;43.52
9035;BME280;4552;43.422;24.592;2022-10-22T11:34:04;100365.78;;;19.40;44.45
9035;BME280;4552;43.422;24.592;2022-10-22T11:36:32;100356.94;;;19.40;44.19
9035;BME280;4552;43.422;24.592;2022-10-22T11:39:03;100340.94;;;19.00;44.79
9035;BME280;4552;43.422;24.592;2022-10-22T11:41:32;100350.31;;;19.30;44.51
9035;BME280;4552;43.422;24.592;2022-10-22T11:44:09;100338.81;;;19.69;43.71
9035;BME280;4552;43.422;24.592;2022-10-22T11:46:54;100338.22;;;19.63;43.24
9035;BME280;4552;43.422;24.592;2022-10-22T11:49:24;100342.81;;;19.59;43.88
9035;BME280;4552;43.422;24.592;2022-10-22T11:52:12;100337.59;;;19.56;43.41
9035;BME280;4552;43.422;24.592;2022-10-22T11:54:53;100331.22;;;19.80;43.38
9035;BME280;4552;43.422;24.592;2022-10-22T11:57:25;100339.25;;;20.17;42.99
9035;BME280;4552;43.422;24.592;2022-10-22T11:59:56;100332.16;;;20.36;42.20
9035;BME280;4552;43.422;24.592;2022-10-22T12:02:40;100326.97;;;19.56;43.39
9035;BME280;4552;43.422;24.592;2022-10-22T12:08:19;100319.53;;;19.64;43.09
9035;BME280;4552;43.422;24.592;2022-10-22T12:11:04;100319.41;;;19.67;43.16
9035;BME280;4552;43.422;24.592;2022-10-22T12:13:50;100313.41;;;19.64;43.66
9035;BME280;4552;43.422;24.592;2022-10-22T12:16:21;100320.22;;;20.08;42.74
9035;BME280;4552;43.422;24.592;2022-10-22T12:18:55;100309.63;;;19.88;42.98
9035;BME280;4552;43.422;24.592;2022-10-22T12:21:24;100309.75;;;20.23;42.13
9035;BME280;4552;43.422;24.592;2022-10-22T12:23:52;100294.13;;;19.97;42.50
9035;BME280;4552;43.422;24.592;2022-10-22T12:26:25;100307.34;;;19.99;42.22
9035;BME280;4552;43.422;24.592;2022-10-22T12:28:56;100300.81;;;20.06;42.00
9035;BME280;4552;43.422;24.592;2022-10-22T12:31:27;100282.75;;;20.49;41.49
9035;BME280;4552;43.422;24.592;2022-10-22T12:34:01;100290.97;;;20.81;40.98
9035;BME280;4552;43.422;24.592;2022-10-22T12:36:29;100286.84;;;20.75;40.41
9035;BME280;4552;43.422;24.592;2022-10-22T12:38:59;100284.00;;;20.42;40.55
9035;BME280;4552;43.422;24.592;2022-10-22T12:41:32;100275.53;;;20.16;40.99
9035;BME280;4552;43.422;24.592;2022-10-22T12:44:01;100279.50;;;20.26;41.45
9035;BME280;4552;43.422;24.592;2022-10-22T12:46:30;100264.88;;;20.34;41.34
9035;BME280;4552;43.422;24.592;2022-10-22T12:48:59;100271.81;;;20.20;40.80
9035;BME280;4552;43.422;24.592;2022-10-22T12:51:27;100256.84;;;19.80;41.80
9035;BME280;4552;43.422;24.592;2022-10-22T12:53:56;100267.97;;;19.70;41.95
9035;BME280;4552;43.422;24.592;2022-10-22T12:56:27;100265.78;;;19.59;42.12
9035;BME280;4552;43.422;24.592;2022-10-22T12:58:59;100245.59;;;19.55;42.13
9035;BME280;4552;43.422;24.592;2022-10-22T13:01:28;100261.09;;;20.21;41.56
9035;BME280;4552;43.422;24.592;2022-10-22T13:04:12;100247.06;;;19.81;41.64
9035;BME280;4552;43.422;24.592;2022-10-22T13:06:46;100255.09;;;19.61;42.53
9035;BME280;4552;43.422;24.592;2022-10-22T13:09:16;100252.94;;;19.87;42.20
9035;BME280;4552;43.422;24.592;2022-10-22T13:11:50;100258.28;;;19.87;42.11
9035;BME280;4552;43.422;24.592;2022-10-22T13:14:26;100252.09;;;19.68;42.78
9035;BME280;4552;43.422;24.592;2022-10-22T13:17:08;100240.19;;;19.95;41.65
9035;BME280;4552;43.422;24.592;2022-10-22T13:19:43;100241.47;;;20.05;41.68
9035;BME280;4552;43.422;24.592;2022-10-22T13:22:32;100243.31;;;20.40;41.34
9035;BME280;4552;43.422;24.592;2022-10-22T13:25:19;100239.59;;;20.44;41.15
9035;BME280;4552;43.422;24.592;2022-10-22T13:27:49;100233.28;;;20.64;40.67
9035;BME280;4552;43.422;24.592;2022-10-22T13:30:20;100243.84;;;20.66;40.32
9035;BME280;4552;43.422;24.592;2022-10-22T13:32:53;100246.59;;;20.64;40.68